sensor_id;sensor_type;location;lat;lon;timestamp;P1;durP1;ratioP1;P2;durP2;ratioP2
27223;SDS011;14965;50.660;13.226;2023-08-06T00:01:55;10.88;;;8.00;;
27223;SDS011;14965;50.660;13.226;2023-08-06T00:04:21;10.18;;;9.00;;
27223;SDS011;14965;50.660;13.226;2023-08-06T00:06:47;12.80;;;8.95;;
27223;SDS011;14965;50.660;13.226;2023-08-06T00:09:12;12.68;;;9.38;;
27223;SDS011;14965;50.660;13.226;2023-08-06T00:11:38;12.77;;;9.60;;
27223;SDS011;14965;50.660;13.226;2023-08-06T00:14:04;14.88;;;10.15;;
27223;SDS011;14965;50.660;13.226;2023-08-06T00:16:32;16.52;;;10.73;;
27223;SDS011;14965;50.660;13.226;2023-08-06T00:18:57;14.15;;;10.95;;
27223;SDS011;14965;50.660;13.226;2023-08-06T00:21:23;14.70;;;10.70;;
27223;SDS011;14965;50.660;13.226;2023-08-06T00:23:49;12.70;;;10.30;;
27223;SDS011;14965;50.660;13.226;2023-08-06T00:26:15;14.73;;;10.77;;
27223;SDS011;14965;50.660;13.226;2023-08-06T00:28:41;14.13;;;10.70;;
27223;SDS011;14965;50.660;13.226;2023-08-06T00:31:07;16.35;;;11.50;;
27223;SDS011;14965;50.660;13.226;2023-08-06T00:33:34;14.55;;;11.13;;
27223;SDS011;14965;50.660;13.226;2023-08-06T00:36:00;16.95;;;11.98;;
27223;SDS011;14965;50.660;13.226;2023-08-06T00:38:26;16.40;;;11.23;;
27223;SDS011;14965;50.660;13.226;2023-08-06T00:40:52;18.30;;;10.13;;
27223;SDS011;14965;50.660;13.226;2023-08-06T00:43:18;13.85;;;9.93;;
27223;SDS011;14965;50.660;13.226;2023-08-06T00:45:44;12.63;;;9.98;;
27223;SDS011;14965;50.660;13.226;2023-08-06T00:48:10;16.77;;;10.13;;
27223;SDS011;14965;50.660;13.226;2023-08-06T00:50:37;13.80;;;10.10;;
27223;SDS011;14965;50.660;13.226;2023-08-06T00:53:03;13.90;;;10.15;;
27223;SDS011;14965;50.660;13.226;2023-08-06T00:55:29;14.93;;;9.45;;
27223;SDS011;14965;50.660;13.226;2023-08-06T00:57:55;16.38;;;9.90;;
27223;SDS011;14965;50.660;13.226;2023-08-06T01:00:22;15.02;;;10.50;;
27223;SDS011;14965;50.660;13.226;2023-08-06T01:02:49;18.88;;;10.80;;
27223;SDS011;14965;50.660;13.226;2023-08-06T01:05:16;17.67;;;11.38;;
27223;SDS011;14965;50.660;13.226;2023-08-06T01:07:51;15.80;;;11.43;;
27223;SDS011;14965;50.660;13.226;2023-08-06T01:10:40;16.75;;;11.10;;
27223;SDS011;14965;50.660;13.226;2023-08-06T01:13:23;15.52;;;10.20;;
27223;SDS011;14965;50.660;13.226;2023-08-06T01:15:58;11.82;;;9.50;;
27223;SDS011;14965;50.660;13.226;2023-08-06T01:18:25;12.45;;;9.45;;
27223;SDS011;14965;50.660;13.226;2023-08-06T01:20:53;15.02;;;10.57;;
27223;SDS011;14965;50.660;13.226;2023-08-06T01:23:19;15.43;;;10.15;;
27223;SDS011;14965;50.660;13.226;2023-08-06T01:25:47;13.63;;;9.43;;
27223;SDS011;14965;50.660;13.226;2023-08-06T01:28:38;11.98;;;9.32;;
27223;SDS011;14965;50.660;13.226;2023-08-06T01:31:15;12.60;;;9.15;;
27223;SDS011;14965;50.660;13.226;2023-08-06T01:33:47;11.75;;;8.40;;
27223;SDS011;14965;50.660;13.226;2023-08-06T01:38:45;16.40;;;8.63;;
27223;SDS011;14965;50.660;13.226;2023-08-06T01:41:11;12.63;;;9.80;;
27223;SDS011;14965;50.660;13.226;2023-08-06T01:43:37;11.85;;;9.57;;
27223;SDS011;14965;50.660;13.226;2023-08-06T01:46:03;12.52;;;9.63;;
27223;SDS011;14965;50.660;13.226;2023-08-06T01:48:29;17.45;;;11.95;;
27223;SDS011;14965;50.660;13.226;2023-08-06T01:50:55;15.90;;;11.05;;
27223;SDS011;14965;50.660;13.226;2023-08-06T01:53:22;16.10;;;11.25;;
27223;SDS011;14965;50.660;13.226;2023-08-06T01:55:48;16.88;;;11.98;;
27223;SDS011;14965;50.660;13.226;2023-08-06T01:58:15;18.30;;;12.15;;
27223;SDS011;14965;50.660;13.226;2023-08-06T02:00:40;17.25;;;12.45;;
27223;SDS011;14965;50.660;13.226;2023-08-06T02:03:07;18.20;;;13.02;;
27223;SDS011;14965;50.660;13.226;2023-08-06T02:05:33;17.50;;;12.38;;
27223;SDS011;14965;50.660;13.226;2023-08-06T02:07:58;17.27;;;12.18;;
27223;SDS011;14965;50.660;13.226;2023-08-06T02:10:26;17.15;;;12.73;;
27223;SDS011;14965;50.660;13.226;2023-08-06T02:12:52;17.73;;;13.00;;
27223;SDS011;14965;50.660;13.226;2023-08-06T02:15:17;17.38;;;12.77;;
27223;SDS011;14965;50.660;13.226;2023-08-06T02:17:43;18.88;;;13.40;;
27223;SDS011;14965;50.660;13.226;2023-08-06T02:20:09;17.48;;;12.25;;
27223;SDS011;14965;50.660;13.226;2023-08-06T02:22:36;16.40;;;12.70;;
27223;SDS011;14965;50.660;13.226;2023-08-06T02:25:02;16.00;;;12.20;;
27223;SDS011;14965;50.660;13.226;2023-08-06T02:27:29;17.08;;;12.15;;
27223;SDS011;14965;50.660;13.226;2023-08-06T02:29:55;17.58;;;13.18;;
27223;SDS011;14965;50.660;13.226;2023-08-06T02:32:21;18.27;;;13.18;;
27223;SDS011;14965;50.660;13.226;2023-08-06T02:34:47;17.27;;;13.82;;
27223;SDS011;14965;50.660;13.226;2023-08-06T02:37:13;16.90;;;13.32;;
27223;SDS011;14965;50.660;13.226;2023-08-06T02:39:39;17.75;;;13.05;;
27223;SDS011;14965;50.660;13.226;2023-08-06T02:42:05;18.98;;;14.57;;
27223;SDS011;14965;50.660;13.226;2023-08-06T02:44:33;22.40;;;13.65;;
27223;SDS011;14965;50.660;13.226;2023-08-06T02:46:59;22.20;;;14.25;;
27223;SDS011;14965;50.660;13.226;2023-08-06T02:49:25;19.35;;;13.65;;
27223;SDS011;14965;50.660;13.226;2023-08-06T02:51:51;21.63;;;14.82;;
27223;SDS011;14965;50.660;13.226;2023-08-06T02:54:17;16.00;;;12.73;;
27223;SDS011;14965;50.660;13.226;2023-08-06T02:56:43;20.15;;;13.43;;
27223;SDS011;14965;50.660;13.226;2023-08-06T02:59:09;18.75;;;12.07;;
27223;SDS011;14965;50.660;13.226;2023-08-06T03:01:37;21.02;;;12.63;;
27223;SDS011;14965;50.660;13.226;2023-08-06T03:04:03;19.05;;;12.43;;
27223;SDS011;14965;50.660;13.226;2023-08-06T03:06:29;20.00;;;13.23;;
27223;SDS011;14965;50.660;13.226;2023-08-06T03:08:55;20.33;;;13.57;;
27223;SDS011;14965;50.660;13.226;2023-08-06T03:11:21;16.27;;;12.80;;
27223;SDS011;14965;50.660;13.226;2023-08-06T03:13:47;16.08;;;12.25;;
27223;SDS011;14965;50.660;13.226;2023-08-06T03:16:14;17.65;;;13.10;;
27223;SDS011;14965;50.660;13.226;2023-08-06T03:18:41;16.27;;;13.05;;
27223;SDS011;14965;50.660;13.226;2023-08-06T03:21:07;16.38;;;12.73;;
27223;SDS011;14965;50.660;13.226;2023-08-06T03:23:33;17.27;;;13.00;;
27223;SDS011;14965;50.660;13.226;2023-08-06T03:26:00;24.10;;;14.82;;
27223;SDS011;14965;50.660;13.226;2023-08-06T03:28:27;22.00;;;15.57;;
27223;SDS011;14965;50.660;13.226;2023-08-06T03:30:58;20.00;;;14.32;;
27223;SDS011;14965;50.660;13.226;2023-08-06T03:33:25;18.42;;;14.77;;
27223;SDS011;14965;50.660;13.226;2023-08-06T03:35:52;19.45;;;14.23;;
27223;SDS011;14965;50.660;13.226;2023-08-06T03:38:18;18.77;;;14.13;;
27223;SDS011;14965;50.660;13.226;2023-08-06T03:40:44;20.10;;;13.80;;
27223;SDS011;14965;50.660;13.226;2023-08-06T03:43:11;21.75;;;14.48;;
27223;SDS011;14965;50.660;13.226;2023-08-06T03:45:37;22.05;;;15.13;;
27223;SDS011;14965;50.660;13.226;2023-08-06T03:48:03;20.20;;;13.93;;
27223;SDS011;14965;50.660;13.226;2023-08-06T03:50:29;21.23;;;13.73;;
27223;SDS011;14965;50.660;13.226;2023-08-06T03:52:57;20.83;;;14.50;;
27223;SDS011;14965;50.660;13.226;2023-08-06T03:55:23;21.70;;;14.68;;
27223;SDS011;14965;50.660;13.226;2023-08-06T03:57:48;20.17;;;14.75;;
27223;SDS011;14965;50.660;13.226;2023-08-06T04:00:15;19.20;;;14.73;;
27223;SDS011;14965;50.660;13.226;2023-08-06T04:02:41;19.77;;;13.27;;
27223;SDS011;14965;50.660;13.226;2023-08-06T04:05:07;17.80;;;13.20;;
27223;SDS011;14965;50.660;13.226;2023-08-06T04:07:33;16.50;;;12.65;;
27223;SDS011;14965;50.660;13.226;2023-08-06T04:10:02;16.63;;;13.07;;
27223;SDS011;14965;50.660;13.226;2023-08-06T04:12:29;21.92;;;14.70;;
27223;SDS011;14965;50.660;13.226;2023-08-06T04:14:56;21.55;;;14.32;;
27223;SDS011;14965;50.660;13.226;2023-08-06T04:17:24;15.98;;;13.23;;
27223;SDS011;14965;50.660;13.226;2023-08-06T04:19:51;19.05;;;14.57;;
27223;SDS011;14965;50.660;13.226;2023-08-06T04:22:19;18.33;;;13.40;;
27223;SDS011;14965;50.660;13.226;2023-08-06T04:24:46;19.65;;;14.40;;
27223;SDS011;14965;50.660;13.226;2023-08-06T04:27:14;20.40;;;14.88;;
27223;SDS011;14965;50.660;13.226;2023-08-06T04:29:41;18.17;;;14.05;;
27223;SDS011;14965;50.660;13.226;2023-08-06T04:32:08;20.08;;;14.80;;
27223;SDS011;14965;50.660;13.226;2023-08-06T04:34:35;22.00;;;15.40;;
27223;SDS011;14965;50.660;13.226;2023-08-06T04:37:02;18.35;;;14.05;;
27223;SDS011;14965;50.660;13.226;2023-08-06T04:39:29;16.92;;;12.82;;
27223;SDS011;14965;50.660;13.226;2023-08-06T04:41:55;17.35;;;13.13;;
27223;SDS011;14965;50.660;13.226;2023-08-06T04:44:23;18.90;;;11.80;;
27223;SDS011;14965;50.660;13.226;2023-08-06T04:46:49;19.08;;;12.50;;
27223;SDS011;14965;50.660;13.226;2023-08-06T04:49:15;17.88;;;11.40;;
27223;SDS011;14965;50.660;13.226;2023-08-06T04:51:42;15.20;;;11.70;;
27223;SDS011;14965;50.660;13.226;2023-08-06T04:54:08;14.93;;;11.48;;
27223;SDS011;14965;50.660;13.226;2023-08-06T04:56:34;15.88;;;11.48;;
27223;SDS011;14965;50.660;13.226;2023-08-06T04:58:59;15.15;;;10.85;;
27223;SDS011;14965;50.660;13.226;2023-08-06T05:01:27;18.55;;;10.82;;
27223;SDS011;14965;50.660;13.226;2023-08-06T05:03:53;18.10;;;11.80;;
27223;SDS011;14965;50.660;13.226;2023-08-06T05:06:19;13.43;;;9.93;;
27223;SDS011;14965;50.660;13.226;2023-08-06T05:08:45;15.00;;;10.75;;
27223;SDS011;14965;50.660;13.226;2023-08-06T05:11:11;11.55;;;9.23;;
27223;SDS011;14965;50.660;13.226;2023-08-06T05:13:36;11.23;;;8.48;;
27223;SDS011;14965;50.660;13.226;2023-08-06T05:16:03;11.68;;;9.73;;
27223;SDS011;14965;50.660;13.226;2023-08-06T05:18:30;9.98;;;8.98;;
27223;SDS011;14965;50.660;13.226;2023-08-06T05:20:56;9.10;;;8.10;;
27223;SDS011;14965;50.660;13.226;2023-08-06T05:23:22;9.68;;;7.57;;
27223;SDS011;14965;50.660;13.226;2023-08-06T05:25:48;9.55;;;6.95;;
27223;SDS011;14965;50.660;13.226;2023-08-06T05:28:14;9.40;;;7.40;;
27223;SDS011;14965;50.660;13.226;2023-08-06T05:30:40;10.82;;;7.50;;
27223;SDS011;14965;50.660;13.226;2023-08-06T05:33:06;10.75;;;8.30;;
27223;SDS011;14965;50.660;13.226;2023-08-06T05:35:33;11.32;;;8.18;;
27223;SDS011;14965;50.660;13.226;2023-08-06T05:37:59;9.98;;;7.60;;
27223;SDS011;14965;50.660;13.226;2023-08-06T05:40:25;9.27;;;7.55;;
27223;SDS011;14965;50.660;13.226;2023-08-06T05:42:51;13.70;;;8.52;;
27223;SDS011;14965;50.660;13.226;2023-08-06T05:45:19;9.27;;;7.93;;
27223;SDS011;14965;50.660;13.226;2023-08-06T05:47:45;9.93;;;7.35;;
27223;SDS011;14965;50.660;13.226;2023-08-06T05:50:13;9.30;;;7.25;;
27223;SDS011;14965;50.660;13.226;2023-08-06T05:52:40;11.15;;;7.55;;
27223;SDS011;14965;50.660;13.226;2023-08-06T05:55:06;11.63;;;8.57;;
27223;SDS011;14965;50.660;13.226;2023-08-06T05:57:33;11.40;;;7.05;;
27223;SDS011;14965;50.660;13.226;2023-08-06T06:00:00;8.02;;;7.20;;
27223;SDS011;14965;50.660;13.226;2023-08-06T06:02:28;10.25;;;6.65;;
27223;SDS011;14965;50.660;13.226;2023-08-06T06:04:54;7.45;;;6.50;;
27223;SDS011;14965;50.660;13.226;2023-08-06T06:07:19;7.25;;;6.38;;
27223;SDS011;14965;50.660;13.226;2023-08-06T06:09:47;9.32;;;5.47;;
27223;SDS011;14965;50.660;13.226;2023-08-06T06:12:13;11.10;;;5.53;;
27223;SDS011;14965;50.660;13.226;2023-08-06T06:14:39;7.00;;;5.60;;
27223;SDS011;14965;50.660;13.226;2023-08-06T06:17:06;6.35;;;5.75;;
27223;SDS011;14965;50.660;13.226;2023-08-06T06:19:32;7.25;;;5.43;;
27223;SDS011;14965;50.660;13.226;2023-08-06T06:21:58;6.68;;;5.20;;
27223;SDS011;14965;50.660;13.226;2023-08-06T06:24:23;6.00;;;5.38;;
27223;SDS011;14965;50.660;13.226;2023-08-06T06:26:51;6.15;;;5.60;;
27223;SDS011;14965;50.660;13.226;2023-08-06T06:29:17;6.25;;;5.22;;
27223;SDS011;14965;50.660;13.226;2023-08-06T06:31:42;5.60;;;4.93;;
27223;SDS011;14965;50.660;13.226;2023-08-06T06:34:08;7.70;;;5.60;;
27223;SDS011;14965;50.660;13.226;2023-08-06T06:36:34;5.80;;;5.20;;
27223;SDS011;14965;50.660;13.226;2023-08-06T06:39:00;7.72;;;5.25;;
27223;SDS011;14965;50.660;13.226;2023-08-06T06:41:26;7.47;;;5.10;;
27223;SDS011;14965;50.660;13.226;2023-08-06T06:43:53;10.95;;;5.75;;
27223;SDS011;14965;50.660;13.226;2023-08-06T06:46:19;6.95;;;5.07;;
27223;SDS011;14965;50.660;13.226;2023-08-06T06:48:45;6.63;;;5.05;;
27223;SDS011;14965;50.660;13.226;2023-08-06T06:51:11;6.63;;;5.25;;
27223;SDS011;14965;50.660;13.226;2023-08-06T06:53:37;8.23;;;6.00;;
27223;SDS011;14965;50.660;13.226;2023-08-06T06:56:03;7.45;;;5.70;;
27223;SDS011;14965;50.660;13.226;2023-08-06T06:58:30;6.90;;;5.25;;
27223;SDS011;14965;50.660;13.226;2023-08-06T07:00:57;7.72;;;6.10;;
27223;SDS011;14965;50.660;13.226;2023-08-06T07:03:23;6.75;;;5.70;;
27223;SDS011;14965;50.660;13.226;2023-08-06T07:05:50;7.10;;;6.00;;
27223;SDS011;14965;50.660;13.226;2023-08-06T07:08:15;8.60;;;5.97;;
27223;SDS011;14965;50.660;13.226;2023-08-06T07:10:42;7.68;;;5.18;;
27223;SDS011;14965;50.660;13.226;2023-08-06T07:13:08;6.18;;;5.57;;
27223;SDS011;14965;50.660;13.226;2023-08-06T07:15:34;6.57;;;5.35;;
27223;SDS011;14965;50.660;13.226;2023-08-06T07:18:01;6.65;;;5.95;;
27223;SDS011;14965;50.660;13.226;2023-08-06T07:20:27;8.73;;;5.60;;
27223;SDS011;14965;50.660;13.226;2023-08-06T07:22:53;6.97;;;5.53;;
27223;SDS011;14965;50.660;13.226;2023-08-06T07:25:19;7.07;;;5.50;;
27223;SDS011;14965;50.660;13.226;2023-08-06T07:27:45;8.10;;;5.80;;
27223;SDS011;14965;50.660;13.226;2023-08-06T07:30:11;7.57;;;5.20;;
27223;SDS011;14965;50.660;13.226;2023-08-06T07:32:37;6.07;;;5.15;;
27223;SDS011;14965;50.660;13.226;2023-08-06T07:35:04;6.07;;;5.40;;
27223;SDS011;14965;50.660;13.226;2023-08-06T07:37:31;7.03;;;5.93;;
27223;SDS011;14965;50.660;13.226;2023-08-06T07:39:57;8.65;;;6.45;;
27223;SDS011;14965;50.660;13.226;2023-08-06T07:42:23;10.98;;;6.75;;
27223;SDS011;14965;50.660;13.226;2023-08-06T07:44:50;9.30;;;6.32;;
27223;SDS011;14965;50.660;13.226;2023-08-06T07:47:17;6.90;;;5.50;;
27223;SDS011;14965;50.660;13.226;2023-08-06T07:49:43;10.45;;;5.75;;
27223;SDS011;14965;50.660;13.226;2023-08-06T07:52:11;9.18;;;5.70;;
27223;SDS011;14965;50.660;13.226;2023-08-06T07:54:37;6.28;;;5.50;;
27223;SDS011;14965;50.660;13.226;2023-08-06T07:57:03;11.70;;;6.00;;
27223;SDS011;14965;50.660;13.226;2023-08-06T07:59:29;7.70;;;5.40;;
27223;SDS011;14965;50.660;13.226;2023-08-06T08:01:55;5.50;;;4.82;;
27223;SDS011;14965;50.660;13.226;2023-08-06T08:04:21;6.72;;;5.22;;
27223;SDS011;14965;50.660;13.226;2023-08-06T08:06:48;5.20;;;4.65;;
27223;SDS011;14965;50.660;13.226;2023-08-06T08:09:16;6.35;;;5.45;;
27223;SDS011;14965;50.660;13.226;2023-08-06T08:11:42;12.20;;;5.80;;
27223;SDS011;14965;50.660;13.226;2023-08-06T08:14:08;7.75;;;6.15;;
27223;SDS011;14965;50.660;13.226;2023-08-06T08:16:34;7.72;;;5.32;;
27223;SDS011;14965;50.660;13.226;2023-08-06T08:19:00;8.10;;;5.30;;
27223;SDS011;14965;50.660;13.226;2023-08-06T08:21:26;7.35;;;5.50;;
27223;SDS011;14965;50.660;13.226;2023-08-06T08:23:51;8.82;;;4.75;;
27223;SDS011;14965;50.660;13.226;2023-08-06T08:26:19;7.60;;;5.43;;
27223;SDS011;14965;50.660;13.226;2023-08-06T08:28:45;5.70;;;4.95;;
27223;SDS011;14965;50.660;13.226;2023-08-06T08:31:11;5.78;;;5.05;;
27223;SDS011;14965;50.660;13.226;2023-08-06T08:33:39;7.05;;;4.63;;
27223;SDS011;14965;50.660;13.226;2023-08-06T08:36:06;6.20;;;4.40;;
27223;SDS011;14965;50.660;13.226;2023-08-06T08:38:32;6.05;;;4.20;;
27223;SDS011;14965;50.660;13.226;2023-08-06T08:40:58;6.05;;;4.70;;
27223;SDS011;14965;50.660;13.226;2023-08-06T08:43:25;6.82;;;4.65;;
27223;SDS011;14965;50.660;13.226;2023-08-06T08:45:53;5.13;;;4.00;;
27223;SDS011;14965;50.660;13.226;2023-08-06T08:48:19;4.28;;;3.88;;
27223;SDS011;14965;50.660;13.226;2023-08-06T08:50:47;6.20;;;3.45;;
27223;SDS011;14965;50.660;13.226;2023-08-06T08:53:15;7.47;;;4.60;;
27223;SDS011;14965;50.660;13.226;2023-08-06T08:55:43;7.78;;;4.38;;
27223;SDS011;14965;50.660;13.226;2023-08-06T08:58:12;8.80;;;4.20;;
27223;SDS011;14965;50.660;13.226;2023-08-06T09:00:40;7.40;;;4.10;;
27223;SDS011;14965;50.660;13.226;2023-08-06T09:03:07;5.50;;;3.55;;
27223;SDS011;14965;50.660;13.226;2023-08-06T09:05:33;5.28;;;3.80;;
27223;SDS011;14965;50.660;13.226;2023-08-06T09:08:01;5.97;;;3.90;;
27223;SDS011;14965;50.660;13.226;2023-08-06T09:10:29;6.20;;;3.97;;
27223;SDS011;14965;50.660;13.226;2023-08-06T09:12:56;7.05;;;3.72;;
27223;SDS011;14965;50.660;13.226;2023-08-06T09:15:23;5.82;;;3.72;;
27223;SDS011;14965;50.660;13.226;2023-08-06T09:17:54;4.57;;;3.40;;
27223;SDS011;14965;50.660;13.226;2023-08-06T09:20:20;3.63;;;3.33;;
27223;SDS011;14965;50.660;13.226;2023-08-06T09:22:46;5.80;;;3.42;;
27223;SDS011;14965;50.660;13.226;2023-08-06T09:25:13;3.90;;;3.10;;
27223;SDS011;14965;50.660;13.226;2023-08-06T09:27:47;5.65;;;3.63;;
27223;SDS011;14965;50.660;13.226;2023-08-06T09:30:13;4.57;;;3.63;;
27223;SDS011;14965;50.660;13.226;2023-08-06T09:32:56;4.88;;;3.20;;
27223;SDS011;14965;50.660;13.226;2023-08-06T09:35:22;3.70;;;3.33;;
27223;SDS011;14965;50.660;13.226;2023-08-06T09:37:48;7.15;;;3.63;;
27223;SDS011;14965;50.660;13.226;2023-08-06T09:40:24;6.25;;;3.50;;
27223;SDS011;14965;50.660;13.226;2023-08-06T09:42:53;5.65;;;3.58;;
27223;SDS011;14965;50.660;13.226;2023-08-06T09:45:20;3.38;;;3.08;;
27223;SDS011;14965;50.660;13.226;2023-08-06T09:47:46;4.05;;;3.45;;
27223;SDS011;14965;50.660;13.226;2023-08-06T09:50:17;6.05;;;3.50;;
27223;SDS011;14965;50.660;13.226;2023-08-06T09:52:43;3.95;;;3.33;;
27223;SDS011;14965;50.660;13.226;2023-08-06T09:55:10;4.20;;;3.30;;
27223;SDS011;14965;50.660;13.226;2023-08-06T09:57:37;7.13;;;3.65;;
27223;SDS011;14965;50.660;13.226;2023-08-06T10:00:05;5.47;;;3.92;;
27223;SDS011;14965;50.660;13.226;2023-08-06T10:02:32;3.75;;;3.35;;
27223;SDS011;14965;50.660;13.226;2023-08-06T10:04:59;5.38;;;3.47;;
27223;SDS011;14965;50.660;13.226;2023-08-06T10:07:27;5.85;;;3.65;;
27223;SDS011;14965;50.660;13.226;2023-08-06T10:09:55;4.70;;;3.72;;
27223;SDS011;14965;50.660;13.226;2023-08-06T10:12:21;5.45;;;3.25;;
27223;SDS011;14965;50.660;13.226;2023-08-06T10:14:49;4.00;;;3.20;;
27223;SDS011;14965;50.660;13.226;2023-08-06T10:17:19;4.13;;;3.15;;
27223;SDS011;14965;50.660;13.226;2023-08-06T10:19:47;3.45;;;3.05;;
27223;SDS011;14965;50.660;13.226;2023-08-06T10:22:14;5.25;;;2.80;;
27223;SDS011;14965;50.660;13.226;2023-08-06T10:24:46;4.15;;;3.00;;
27223;SDS011;14965;50.660;13.226;2023-08-06T10:27:16;3.78;;;3.13;;
27223;SDS011;14965;50.660;13.226;2023-08-06T10:29:48;5.63;;;2.88;;
27223;SDS011;14965;50.660;13.226;2023-08-06T10:32:14;4.22;;;3.30;;
27223;SDS011;14965;50.660;13.226;2023-08-06T10:34:55;4.15;;;2.95;;
27223;SDS011;14965;50.660;13.226;2023-08-06T10:37:23;4.38;;;3.00;;
27223;SDS011;14965;50.660;13.226;2023-08-06T10:40:00;3.67;;;2.80;;
27223;SDS011;14965;50.660;13.226;2023-08-06T10:42:28;3.45;;;2.97;;
27223;SDS011;14965;50.660;13.226;2023-08-06T10:45:10;3.83;;;3.00;;
27223;SDS011;14965;50.660;13.226;2023-08-06T10:47:37;3.65;;;3.00;;
27223;SDS011;14965;50.660;13.226;2023-08-06T10:50:04;6.75;;;3.05;;
27223;SDS011;14965;50.660;13.226;2023-08-06T10:52:31;2.83;;;2.60;;
27223;SDS011;14965;50.660;13.226;2023-08-06T10:54:57;3.65;;;2.95;;
27223;SDS011;14965;50.660;13.226;2023-08-06T10:57:25;5.40;;;2.67;;
27223;SDS011;14965;50.660;13.226;2023-08-06T10:59:51;5.05;;;2.70;;
27223;SDS011;14965;50.660;13.226;2023-08-06T11:02:17;4.55;;;3.03;;
27223;SDS011;14965;50.660;13.226;2023-08-06T11:04:43;6.32;;;3.17;;
27223;SDS011;14965;50.660;13.226;2023-08-06T11:07:09;4.13;;;3.15;;
27223;SDS011;14965;50.660;13.226;2023-08-06T11:09:35;5.07;;;2.72;;
27223;SDS011;14965;50.660;13.226;2023-08-06T11:12:02;5.90;;;2.95;;
27223;SDS011;14965;50.660;13.226;2023-08-06T11:14:37;3.90;;;2.58;;
27223;SDS011;14965;50.660;13.226;2023-08-06T11:17:03;4.22;;;2.50;;
27223;SDS011;14965;50.660;13.226;2023-08-06T11:19:30;3.50;;;2.65;;
27223;SDS011;14965;50.660;13.226;2023-08-06T11:21:56;4.97;;;2.60;;
27223;SDS011;14965;50.660;13.226;2023-08-06T11:24:23;2.63;;;2.42;;
27223;SDS011;14965;50.660;13.226;2023-08-06T11:26:49;4.68;;;2.85;;
27223;SDS011;14965;50.660;13.226;2023-08-06T11:29:15;2.88;;;2.35;;
27223;SDS011;14965;50.660;13.226;2023-08-06T11:31:44;3.75;;;2.53;;
27223;SDS011;14965;50.660;13.226;2023-08-06T11:34:13;4.80;;;2.80;;
27223;SDS011;14965;50.660;13.226;2023-08-06T11:36:40;4.15;;;2.30;;
27223;SDS011;14965;50.660;13.226;2023-08-06T11:39:06;4.80;;;2.60;;
27223;SDS011;14965;50.660;13.226;2023-08-06T11:41:34;4.38;;;2.60;;
27223;SDS011;14965;50.660;13.226;2023-08-06T11:44:01;4.80;;;2.90;;
27223;SDS011;14965;50.660;13.226;2023-08-06T11:46:28;4.88;;;2.97;;
27223;SDS011;14965;50.660;13.226;2023-08-06T11:49:15;3.13;;;2.60;;
27223;SDS011;14965;50.660;13.226;2023-08-06T11:51:41;4.07;;;2.78;;
27223;SDS011;14965;50.660;13.226;2023-08-06T11:54:10;4.65;;;2.67;;
27223;SDS011;14965;50.660;13.226;2023-08-06T11:56:35;3.55;;;2.75;;
27223;SDS011;14965;50.660;13.226;2023-08-06T11:59:01;3.55;;;2.40;;
27223;SDS011;14965;50.660;13.226;2023-08-06T12:01:27;3.30;;;2.75;;
27223;SDS011;14965;50.660;13.226;2023-08-06T12:03:58;3.53;;;2.45;;
27223;SDS011;14965;50.660;13.226;2023-08-06T12:06:28;3.35;;;2.50;;
27223;SDS011;14965;50.660;13.226;2023-08-06T12:08:53;3.22;;;2.22;;
27223;SDS011;14965;50.660;13.226;2023-08-06T12:11:20;3.45;;;2.50;;
27223;SDS011;14965;50.660;13.226;2023-08-06T12:16:16;5.40;;;2.80;;
27223;SDS011;14965;50.660;13.226;2023-08-06T12:18:42;2.97;;;2.35;;
27223;SDS011;14965;50.660;13.226;2023-08-06T12:21:08;5.70;;;2.58;;
27223;SDS011;14965;50.660;13.226;2023-08-06T12:23:35;4.50;;;2.80;;
27223;SDS011;14965;50.660;13.226;2023-08-06T12:26:01;6.30;;;2.80;;
27223;SDS011;14965;50.660;13.226;2023-08-06T12:28:30;3.10;;;2.60;;
27223;SDS011;14965;50.660;13.226;2023-08-06T12:30:56;4.93;;;2.40;;
27223;SDS011;14965;50.660;13.226;2023-08-06T12:33:22;4.70;;;2.72;;
27223;SDS011;14965;50.660;13.226;2023-08-06T12:35:48;3.67;;;2.92;;
27223;SDS011;14965;50.660;13.226;2023-08-06T12:38:14;4.93;;;2.60;;
27223;SDS011;14965;50.660;13.226;2023-08-06T12:40:41;6.65;;;2.50;;
27223;SDS011;14965;50.660;13.226;2023-08-06T12:43:07;4.82;;;2.80;;
27223;SDS011;14965;50.660;13.226;2023-08-06T12:45:33;3.30;;;2.75;;
27223;SDS011;14965;50.660;13.226;2023-08-06T12:47:59;2.42;;;2.22;;
27223;SDS011;14965;50.660;13.226;2023-08-06T12:50:25;3.67;;;2.50;;
27223;SDS011;14965;50.660;13.226;2023-08-06T12:52:51;3.83;;;2.60;;
27223;SDS011;14965;50.660;13.226;2023-08-06T12:55:17;4.50;;;2.63;;
27223;SDS011;14965;50.660;13.226;2023-08-06T12:57:44;5.38;;;2.50;;
27223;SDS011;14965;50.660;13.226;2023-08-06T13:00:10;2.78;;;2.05;;
27223;SDS011;14965;50.660;13.226;2023-08-06T13:02:37;3.92;;;2.10;;
27223;SDS011;14965;50.660;13.226;2023-08-06T13:05:03;6.28;;;2.20;;
27223;SDS011;14965;50.660;13.226;2023-08-06T13:07:29;4.55;;;2.22;;
27223;SDS011;14965;50.660;13.226;2023-08-06T13:09:55;3.60;;;2.22;;
27223;SDS011;14965;50.660;13.226;2023-08-06T13:12:21;7.25;;;2.65;;
27223;SDS011;14965;50.660;13.226;2023-08-06T13:14:48;3.28;;;2.60;;
27223;SDS011;14965;50.660;13.226;2023-08-06T13:17:14;3.40;;;2.40;;
27223;SDS011;14965;50.660;13.226;2023-08-06T13:19:40;2.55;;;2.20;;
27223;SDS011;14965;50.660;13.226;2023-08-06T13:22:06;4.25;;;2.53;;
27223;SDS011;14965;50.660;13.226;2023-08-06T13:24:32;3.75;;;2.42;;
27223;SDS011;14965;50.660;13.226;2023-08-06T13:26:58;5.82;;;3.20;;
27223;SDS011;14965;50.660;13.226;2023-08-06T13:29:24;3.40;;;2.45;;
27223;SDS011;14965;50.660;13.226;2023-08-06T13:31:52;5.25;;;2.33;;
27223;SDS011;14965;50.660;13.226;2023-08-06T13:34:19;2.97;;;2.25;;
27223;SDS011;14965;50.660;13.226;2023-08-06T13:36:45;5.20;;;2.50;;
27223;SDS011;14965;50.660;13.226;2023-08-06T13:39:13;5.68;;;2.67;;
27223;SDS011;14965;50.660;13.226;2023-08-06T13:41:39;4.07;;;2.50;;
27223;SDS011;14965;50.660;13.226;2023-08-06T13:44:05;2.58;;;2.08;;
27223;SDS011;14965;50.660;13.226;2023-08-06T13:46:31;4.00;;;2.42;;
27223;SDS011;14965;50.660;13.226;2023-08-06T13:48:58;4.15;;;2.45;;
27223;SDS011;14965;50.660;13.226;2023-08-06T13:51:24;4.10;;;2.40;;
27223;SDS011;14965;50.660;13.226;2023-08-06T13:53:50;3.92;;;2.10;;
27223;SDS011;14965;50.660;13.226;2023-08-06T13:56:16;2.70;;;2.30;;
27223;SDS011;14965;50.660;13.226;2023-08-06T13:58:42;3.67;;;2.03;;
27223;SDS011;14965;50.660;13.226;2023-08-06T14:01:09;3.33;;;2.28;;
27223;SDS011;14965;50.660;13.226;2023-08-06T14:03:36;3.67;;;2.10;;
27223;SDS011;14965;50.660;13.226;2023-08-06T14:06:04;3.88;;;2.15;;
27223;SDS011;14965;50.660;13.226;2023-08-06T14:08:30;2.60;;;2.10;;
27223;SDS011;14965;50.660;13.226;2023-08-06T14:10:56;4.60;;;2.40;;
27223;SDS011;14965;50.660;13.226;2023-08-06T14:13:22;4.20;;;2.47;;
27223;SDS011;14965;50.660;13.226;2023-08-06T14:15:48;2.60;;;2.05;;
27223;SDS011;14965;50.660;13.226;2023-08-06T14:18:14;3.05;;;2.30;;
27223;SDS011;14965;50.660;13.226;2023-08-06T14:20:40;2.88;;;2.50;;
27223;SDS011;14965;50.660;13.226;2023-08-06T14:23:08;3.60;;;2.33;;
27223;SDS011;14965;50.660;13.226;2023-08-06T14:25:35;3.83;;;2.47;;
27223;SDS011;14965;50.660;13.226;2023-08-06T14:28:01;3.35;;;2.17;;
27223;SDS011;14965;50.660;13.226;2023-08-06T14:30:27;2.53;;;2.20;;